createdAt,value
2022-09-11T00:01:03.830Z,21.64
2022-09-11T00:03:31.553Z,21.63
2022-09-11T00:06:10.716Z,21.59
2022-09-11T00:08:38.857Z,21.55
2022-09-11T00:11:11.085Z,21.39
2022-09-11T00:13:39.477Z,21.40
2022-09-11T00:16:07.616Z,21.31
2022-09-11T00:18:38.258Z,21.33
2022-09-11T00:21:07.283Z,21.34
2022-09-11T00:23:34.438Z,21.32
2022-09-11T00:26:02.848Z,21.31
2022-09-11T00:28:30.800Z,21.15
2022-09-11T00:31:02.387Z,21.20
2022-09-11T00:33:29.988Z,21.25
2022-09-11T00:36:01.221Z,21.30
2022-09-11T00:38:29.677Z,21.21
2022-09-11T00:40:58.424Z,21.12
2022-09-11T00:43:26.854Z,21.18
2022-09-11T00:46:04.934Z,21.20
2022-09-11T00:48:34.386Z,20.97
2022-09-11T00:51:03.903Z,20.93
2022-09-11T00:53:34.025Z,20.97
2022-09-11T00:56:03.906Z,21.05
2022-09-11T00:58:33.964Z,21.03
2022-09-11T01:01:03.269Z,21.07
2022-09-11T01:03:32.207Z,20.98
2022-09-11T01:05:59.516Z,20.89
2022-09-11T01:08:27.713Z,20.91
2022-09-11T01:10:57.885Z,20.86
2022-09-11T01:13:38.096Z,20.77
2022-09-11T01:16:08.709Z,20.80
2022-09-11T01:18:48.320Z,20.81
2022-09-11T01:21:32.585Z,20.80
2022-09-11T01:24:15.159Z,20.87
2022-09-11T01:26:45.419Z,20.85
2022-09-11T01:29:16.128Z,20.77
2022-09-11T01:31:52.770Z,20.85
2022-09-11T01:34:31.560Z,20.87
2022-09-11T01:37:03.486Z,20.92
2022-09-11T01:39:34.578Z,21.02
2022-09-11T01:42:07.771Z,21.06
2022-09-11T01:44:51.884Z,20.99
2022-09-11T01:47:20.040Z,21.02
2022-09-11T01:50:19.299Z,21.01
2022-09-11T01:52:53.335Z,21.00
2022-09-11T01:55:28.960Z,20.96
2022-09-11T01:58:03.077Z,20.79
2022-09-11T02:00:35.615Z,20.75
2022-09-11T02:03:17.191Z,20.84
2022-09-11T02:05:49.360Z,20.80
2022-09-11T02:08:30.004Z,20.83
2022-09-11T02:11:03.542Z,21.01
2022-09-11T02:13:34.296Z,21.17
2022-09-11T02:16:16.726Z,21.05
2022-09-11T02:19:01.792Z,20.58
2022-09-11T02:21:29.244Z,20.58
2022-09-11T02:23:56.825Z,20.49
2022-09-11T02:26:25.799Z,20.65
2022-09-11T02:28:53.731Z,20.77
2022-09-11T02:31:23.355Z,20.77
2022-09-11T02:33:52.014Z,20.65
2022-09-11T02:36:31.780Z,20.27
2022-09-11T02:39:20.577Z,20.18
2022-09-11T02:41:55.330Z,20.17
2022-09-11T02:44:23.933Z,20.52
2022-09-11T02:46:57.028Z,20.50
2022-09-11T02:49:37.590Z,20.40
2022-09-11T02:52:24.464Z,20.30
2022-09-11T02:54:52.034Z,20.43
2022-09-11T02:57:31.605Z,20.66
2022-09-11T03:00:01.143Z,20.63
2022-09-11T03:02:30.658Z,20.44
2022-09-11T03:04:58.229Z,20.13
2022-09-11T03:07:25.562Z,20.03
2022-09-11T03:09:53.156Z,19.98
2022-09-11T03:12:22.959Z,19.98
2022-09-11T03:14:51.586Z,20.13
2022-09-11T03:17:20.005Z,20.51
2022-09-11T03:19:47.995Z,20.71
2022-09-11T03:22:15.276Z,20.64
2022-09-11T03:24:43.150Z,20.48
2022-09-11T03:27:11.225Z,20.24
2022-09-11T03:29:42.152Z,20.45
2022-09-11T03:32:10.886Z,20.25
2022-09-11T03:34:38.632Z,20.16
2022-09-11T03:37:05.854Z,20.29
2022-09-11T03:39:33.619Z,20.14
2022-09-11T03:42:01.325Z,20.10
2022-09-11T03:44:29.305Z,20.09
2022-09-11T03:46:57.437Z,20.34
2022-09-11T03:49:25.285Z,20.47
2022-09-11T03:51:52.788Z,20.16
2022-09-11T03:54:20.982Z,19.94
2022-09-11T03:56:48.833Z,19.91
2022-09-11T03:59:16.578Z,19.87
2022-09-11T04:01:45.214Z,19.98
2022-09-11T04:04:13.078Z,19.97
2022-09-11T04:06:43.262Z,19.75
2022-09-11T04:09:10.842Z,19.28
2022-09-11T04:11:40.032Z,19.28
2022-09-11T04:14:14.090Z,19.24
2022-09-11T04:16:43.374Z,19.47
2022-09-11T04:19:12.393Z,19.48
2022-09-11T04:21:42.330Z,19.56
2022-09-11T04:24:10.146Z,19.50
2022-09-11T04:26:37.612Z,19.30
2022-09-11T04:29:13.461Z,18.97
2022-09-11T04:31:41.399Z,18.90
2022-09-11T04:34:10.276Z,19.03
2022-09-11T04:36:38.192Z,19.18
2022-09-11T04:39:06.611Z,19.34
2022-09-11T04:41:34.548Z,19.11
2022-09-11T04:44:05.478Z,19.06
2022-09-11T04:46:36.462Z,19.17
2022-09-11T04:49:08.265Z,19.11
2022-09-11T04:51:36.631Z,19.03
2022-09-11T04:54:04.728Z,19.10
2022-09-11T04:56:38.013Z,19.20
2022-09-11T04:59:09.628Z,19.42
2022-09-11T05:01:37.906Z,19.45
2022-09-11T05:04:05.823Z,19.45
2022-09-11T05:06:33.042Z,19.41
2022-09-11T05:09:04.670Z,19.55
2022-09-11T05:11:34.297Z,19.40
2022-09-11T05:14:02.151Z,19.34
2022-09-11T05:16:33.353Z,19.18
2022-09-11T05:19:01.411Z,19.04
2022-09-11T05:21:28.822Z,19.14
2022-09-11T05:23:57.863Z,19.19
2022-09-11T05:26:27.530Z,19.00
2022-09-11T05:28:56.100Z,18.94
2022-09-11T05:31:25.420Z,19.07
2022-09-11T05:33:54.574Z,18.96
2022-09-11T05:36:22.147Z,18.86
2022-09-11T05:38:49.343Z,19.04
2022-09-11T05:41:17.495Z,18.99
2022-09-11T05:43:44.776Z,19.04
2022-09-11T05:46:13.214Z,19.07
2022-09-11T05:48:40.944Z,19.01
2022-09-11T05:51:11.510Z,19.15
2022-09-11T05:53:39.211Z,19.19
2022-09-11T05:56:07.798Z,19.20
2022-09-11T05:58:53.733Z,19.27
2022-09-11T06:01:27.804Z,19.38
2022-09-11T06:04:11.034Z,19.34
2022-09-11T06:06:39.492Z,19.25
2022-09-11T06:09:07.449Z,19.37
2022-09-11T06:11:35.107Z,19.38
2022-09-11T06:14:03.142Z,19.38
2022-09-11T06:16:31.744Z,19.44
2022-09-11T06:19:06.190Z,19.61
2022-09-11T06:21:33.572Z,19.84
2022-09-11T06:24:07.519Z,19.93
2022-09-11T06:26:35.877Z,19.71
2022-09-11T06:29:03.335Z,19.76
2022-09-11T06:31:32.037Z,19.63
2022-09-11T06:33:59.655Z,19.60
2022-09-11T06:36:27.447Z,19.63
2022-09-11T06:38:57.485Z,19.83
2022-09-11T06:41:27.144Z,19.88
2022-09-11T06:44:00.978Z,20.08
2022-09-11T06:46:29.829Z,20.34
2022-09-11T06:48:58.471Z,20.52
2022-09-11T06:51:28.219Z,20.58
2022-09-11T06:53:58.033Z,20.53
2022-09-11T06:56:29.209Z,20.70
2022-09-11T06:58:56.639Z,20.86
2022-09-11T07:01:25.950Z,20.92
2022-09-11T07:04:02.675Z,20.72
2022-09-11T07:06:32.274Z,20.49
2022-09-11T07:09:02.655Z,20.71
2022-09-11T07:11:46.895Z,20.94
2022-09-11T07:14:14.352Z,21.02
2022-09-11T07:16:44.419Z,20.98
2022-09-11T07:19:13.601Z,20.92
2022-09-11T07:21:41.815Z,20.86
2022-09-11T07:24:09.267Z,20.96
2022-09-11T07:26:40.682Z,20.92
2022-09-11T07:29:15.235Z,20.88
2022-09-11T07:31:43.960Z,20.93
2022-09-11T07:34:12.119Z,20.90
2022-09-11T07:36:39.366Z,21.02
2022-09-11T07:39:09.457Z,21.10
2022-09-11T07:41:45.099Z,21.06
2022-09-11T07:44:18.455Z,21.16
2022-09-11T07:46:45.651Z,21.26
2022-09-11T07:49:13.855Z,21.28
2022-09-11T07:51:43.294Z,21.38
2022-09-11T07:54:12.950Z,21.43
2022-09-11T07:56:41.943Z,21.28
2022-09-11T07:59:11.532Z,21.38
2022-09-11T08:01:43.108Z,21.41
2022-09-11T08:04:11.721Z,21.40
2022-09-11T08:06:40.374Z,21.50
2022-09-11T08:09:15.118Z,21.58
2022-09-11T08:11:48.887Z,21.61
2022-09-11T08:14:18.139Z,21.49
2022-09-11T08:16:48.440Z,21.58
2022-09-11T08:19:18.214Z,21.60
2022-09-11T08:21:48.662Z,21.80
2022-09-11T08:24:17.150Z,21.89
2022-09-11T08:26:48.797Z,22.09
2022-09-11T08:29:18.294Z,22.05
2022-09-11T08:31:46.151Z,22.30
2022-09-11T08:34:15.407Z,22.25
2022-09-11T08:36:42.670Z,22.24
2022-09-11T08:39:10.302Z,22.32
2022-09-11T08:41:48.923Z,22.35
2022-09-11T08:44:30.428Z,22.57
2022-09-11T08:47:37.224Z,22.92
2022-09-11T08:50:07.961Z,23.20
2022-09-11T08:52:36.755Z,23.32
2022-09-11T08:55:12.914Z,23.53
2022-09-11T08:57:46.836Z,24.05
2022-09-11T09:00:19.169Z,24.33
2022-09-11T09:03:20.877Z,24.49
2022-09-11T09:06:08.623Z,24.76
2022-09-11T09:08:50.236Z,25.89
2022-09-11T09:11:22.996Z,26.84
2022-09-11T09:13:50.856Z,26.22
2022-09-11T09:16:28.967Z,26.69
2022-09-11T09:19:00.823Z,25.51
2022-09-11T09:21:40.483Z,24.86
2022-09-11T09:24:19.433Z,24.71
2022-09-11T09:26:52.284Z,25.03
2022-09-11T09:29:23.949Z,24.95
2022-09-11T09:31:53.579Z,24.90
2022-09-11T09:34:21.985Z,24.98
2022-09-11T09:36:49.380Z,24.73
2022-09-11T09:39:18.729Z,24.34
2022-09-11T09:41:45.820Z,24.43
2022-09-11T09:44:24.479Z,24.42
2022-09-11T09:46:56.144Z,24.66
2022-09-11T09:49:26.042Z,24.65
2022-09-11T09:51:59.821Z,24.52
2022-09-11T09:54:31.003Z,24.80
2022-09-11T09:57:02.431Z,24.76
2022-09-11T09:59:40.668Z,24.52
2022-09-11T10:02:07.938Z,24.58
2022-09-11T10:04:35.307Z,24.55
2022-09-11T10:07:05.384Z,24.65
2022-09-11T10:09:46.721Z,24.31
2022-09-11T10:12:26.661Z,24.13
2022-09-11T10:15:16.016Z,23.98
2022-09-11T10:17:46.470Z,23.97
2022-09-11T10:20:19.617Z,24.01
2022-09-11T10:22:46.908Z,24.15
2022-09-11T10:25:15.643Z,24.26
2022-09-11T10:28:04.613Z,24.31
2022-09-11T10:30:31.777Z,24.41
2022-09-11T10:33:03.365Z,24.12
2022-09-11T10:35:32.004Z,24.09
2022-09-11T10:38:18.619Z,24.14
2022-09-11T10:41:02.771Z,24.27
2022-09-11T10:43:36.666Z,24.29
2022-09-11T10:46:05.477Z,24.33
2022-09-11T10:48:33.243Z,24.48
2022-09-11T10:51:11.799Z,24.58
2022-09-11T10:53:50.378Z,24.31
2022-09-11T10:56:17.876Z,24.40
2022-09-11T10:58:47.359Z,24.40
2022-09-11T11:01:14.776Z,24.45
2022-09-11T11:03:42.152Z,24.53
2022-09-11T11:06:20.102Z,24.54
2022-09-11T11:08:50.933Z,24.51
2022-09-11T11:11:22.249Z,24.66
2022-09-11T11:14:11.490Z,24.56
2022-09-11T11:16:50.821Z,24.66
2022-09-11T11:19:43.981Z,24.69
2022-09-11T11:22:17.097Z,24.75
2022-09-11T11:25:03.060Z,24.85
2022-09-11T11:27:38.089Z,24.90
2022-09-11T11:30:10.620Z,24.72
2022-09-11T11:32:48.793Z,24.81
2022-09-11T11:35:34.652Z,24.88
2022-09-11T11:38:08.912Z,24.83
2022-09-11T11:40:40.470Z,24.90
2022-09-11T11:43:10.472Z,24.98
2022-09-11T11:45:37.741Z,24.97
2022-09-11T11:48:09.184Z,25.02
2022-09-11T11:50:40.413Z,25.10
2022-09-11T11:53:10.388Z,25.18
2022-09-11T11:55:49.307Z,25.16
2022-09-11T11:58:27.624Z,25.19
2022-09-11T12:01:00.175Z,25.22
2022-09-11T12:03:38.850Z,25.23
2022-09-11T12:06:08.034Z,25.23
2022-09-11T12:08:43.535Z,25.29
2022-09-11T12:11:13.013Z,25.31
2022-09-11T12:13:44.918Z,25.39
2022-09-11T12:16:19.192Z,25.43
2022-09-11T12:19:05.687Z,25.45
2022-09-11T12:21:38.031Z,25.44
2022-09-11T12:24:05.149Z,25.44
2022-09-11T12:26:32.433Z,25.42
2022-09-11T12:29:12.320Z,25.50
2022-09-11T12:31:51.382Z,25.49
2022-09-11T12:34:19.636Z,25.36
2022-09-11T12:36:50.196Z,25.26
2022-09-11T12:39:19.409Z,25.33
2022-09-11T12:41:46.645Z,25.29
2022-09-11T12:44:30.752Z,25.30
2022-09-11T12:46:57.946Z,25.26
2022-09-11T12:49:26.012Z,25.27
2022-09-11T12:52:01.307Z,25.24
2022-09-11T12:54:33.421Z,25.24
2022-09-11T12:57:09.323Z,25.26
2022-09-11T12:59:41.120Z,25.27
2022-09-11T13:02:26.213Z,25.30
2022-09-11T13:04:54.245Z,25.42
2022-09-11T13:07:35.082Z,25.35
2022-09-11T13:10:08.139Z,25.35
2022-09-11T13:12:35.893Z,25.27
2022-09-11T13:15:03.733Z,25.25
2022-09-11T13:17:33.080Z,25.26
2022-09-11T13:20:03.460Z,25.26
2022-09-11T13:22:31.387Z,25.43
2022-09-11T13:25:06.374Z,25.34
2022-09-11T13:27:37.511Z,25.34
2022-09-11T13:30:05.707Z,25.36
2022-09-11T13:32:33.634Z,25.37
2022-09-11T13:35:04.825Z,25.38
2022-09-11T13:37:40.584Z,25.36
2022-09-11T13:40:15.561Z,25.34
2022-09-11T13:42:42.876Z,25.29
2022-09-11T13:45:15.242Z,25.26
2022-09-11T13:47:42.470Z,25.26
2022-09-11T13:50:12.838Z,25.26
2022-09-11T13:52:41.828Z,25.29
2022-09-11T13:55:11.296Z,25.30
2022-09-11T13:58:02.010Z,25.34
2022-09-11T14:00:43.039Z,25.32
2022-09-11T14:03:24.598Z,25.32
2022-09-11T14:05:54.078Z,25.33
2022-09-11T14:08:25.013Z,25.34
2022-09-11T14:11:03.469Z,25.35
2022-09-11T14:13:41.431Z,25.34
2022-09-11T14:16:17.164Z,25.32
2022-09-11T14:18:45.517Z,25.32
2022-09-11T14:21:14.974Z,25.30
2022-09-11T14:23:49.804Z,25.28
2022-09-11T14:26:24.224Z,25.25
2022-09-11T14:29:01.409Z,25.24
2022-09-11T14:31:36.273Z,25.25
2022-09-11T14:34:03.546Z,25.27
2022-09-11T14:36:30.689Z,25.32
2022-09-11T14:38:58.270Z,25.31
2022-09-11T14:41:25.609Z,25.29
2022-09-11T14:43:53.115Z,25.30
2022-09-11T14:46:20.437Z,25.38
2022-09-11T14:48:47.641Z,25.35
2022-09-11T14:51:14.887Z,25.28
2022-09-11T14:53:43.395Z,25.25
2022-09-11T14:56:10.837Z,25.24
2022-09-11T14:58:38.656Z,25.25
2022-09-11T15:01:05.946Z,25.26
2022-09-11T15:03:33.157Z,25.28
2022-09-11T15:06:00.369Z,25.26
2022-09-11T15:08:27.500Z,25.27
2022-09-11T15:10:54.659Z,25.28
2022-09-11T15:13:21.916Z,25.30
2022-09-11T15:15:51.985Z,25.32
2022-09-11T15:18:19.217Z,25.29
2022-09-11T15:20:46.452Z,25.26
2022-09-11T15:23:13.641Z,25.26
2022-09-11T15:25:40.988Z,25.26
2022-09-11T15:28:10.261Z,25.31
2022-09-11T15:30:37.863Z,25.28
2022-09-11T15:33:05.106Z,25.22
2022-09-11T15:35:33.149Z,25.21
2022-09-11T15:38:00.568Z,25.22
2022-09-11T15:40:27.875Z,25.22
2022-09-11T15:42:56.689Z,25.29
2022-09-11T15:45:24.029Z,25.22
2022-09-11T15:47:51.380Z,25.20
2022-09-11T15:50:24.593Z,25.18
2022-09-11T15:52:51.870Z,25.18
2022-09-11T15:55:19.111Z,25.21
2022-09-11T15:57:46.262Z,25.19
2022-09-11T16:00:14.618Z,25.18
2022-09-11T16:02:43.006Z,25.16
2022-09-11T16:05:10.363Z,25.17
2022-09-11T16:07:37.558Z,25.12
2022-09-11T16:10:04.914Z,25.12
2022-09-11T16:12:34.507Z,25.09
2022-09-11T16:15:02.060Z,25.10
2022-09-11T16:17:32.324Z,25.07
2022-09-11T16:19:59.793Z,25.04
2022-09-11T16:22:30.851Z,25.02
2022-09-11T16:24:59.381Z,24.99
2022-09-11T16:27:26.568Z,25.00
2022-09-11T16:32:41.277Z,24.99
2022-09-11T16:35:08.730Z,24.95
2022-09-11T16:37:35.944Z,24.88
2022-09-11T16:40:03.924Z,24.83
2022-09-11T16:42:31.658Z,24.84
2022-09-11T16:44:58.946Z,24.83
2022-09-11T16:47:26.315Z,24.82
2022-09-11T16:50:09.156Z,24.82
2022-09-11T16:52:37.002Z,24.82
2022-09-11T16:55:05.223Z,24.83
2022-09-11T16:57:33.380Z,24.83
2022-09-11T17:00:00.765Z,24.78
2022-09-11T17:02:27.990Z,24.75
2022-09-11T17:04:55.173Z,24.68
2022-09-11T17:07:23.793Z,24.60
2022-09-11T17:09:50.989Z,24.58
2022-09-11T17:12:18.282Z,24.55
2022-09-11T17:14:45.519Z,24.53
2022-09-11T17:17:12.688Z,24.50
2022-09-11T17:19:39.878Z,24.48
2022-09-11T17:22:08.463Z,24.44
2022-09-11T17:24:36.411Z,24.39
2022-09-11T17:27:03.774Z,24.34
2022-09-11T17:29:30.939Z,24.32
2022-09-11T17:32:23.740Z,24.23
2022-09-11T17:34:46.980Z,24.15
2022-09-11T17:37:14.733Z,24.09
2022-09-11T17:39:42.625Z,24.06
2022-09-11T17:42:13.139Z,23.99
2022-09-11T17:44:43.388Z,23.99
2022-09-11T17:47:10.617Z,23.96
2022-09-11T17:49:37.765Z,23.92
2022-09-11T17:52:05.126Z,23.89
2022-09-11T17:54:32.310Z,23.86
2022-09-11T17:57:01.553Z,23.84
2022-09-11T17:59:28.729Z,23.80
2022-09-11T18:01:56.087Z,23.80
2022-09-11T18:04:23.407Z,23.77
2022-09-11T18:06:51.287Z,23.75
2022-09-11T18:09:19.817Z,23.78
2022-09-11T18:11:48.030Z,23.84
2022-09-11T18:14:15.550Z,23.87
2022-09-11T18:16:47.239Z,23.81
2022-09-11T18:19:15.703Z,23.81
2022-09-11T18:21:46.669Z,23.81
2022-09-11T18:24:19.903Z,23.83
2022-09-11T18:26:51.543Z,23.94
2022-09-11T18:29:44.197Z,23.88
2022-09-11T18:32:11.376Z,23.94
2022-09-11T18:34:38.765Z,23.90
2022-09-11T18:37:07.249Z,23.84
2022-09-11T18:39:34.583Z,23.75
2022-09-11T18:42:02.081Z,23.75
2022-09-11T18:44:29.272Z,23.60
2022-09-11T18:46:56.439Z,23.59
2022-09-11T18:49:23.618Z,23.49
2022-09-11T18:51:51.118Z,23.40
2022-09-11T18:54:20.964Z,23.27
2022-09-11T18:56:49.414Z,23.24
2022-09-11T18:59:16.669Z,23.26
2022-09-11T19:01:43.971Z,23.30
2022-09-11T19:04:12.192Z,23.19
2022-09-11T19:06:39.835Z,23.20
2022-09-11T19:09:12.379Z,23.14
2022-09-11T19:11:39.691Z,23.08
2022-09-11T19:14:08.382Z,22.97
2022-09-11T19:16:36.166Z,23.02
2022-09-11T19:19:03.739Z,22.95
2022-09-11T19:21:30.952Z,22.84
2022-09-11T19:24:00.591Z,22.75
2022-09-11T19:26:29.976Z,22.60
2022-09-11T19:28:57.384Z,22.57
2022-09-11T19:31:27.336Z,22.45
2022-09-11T19:33:56.639Z,22.37
2022-09-11T19:36:25.917Z,22.32
2022-09-11T19:38:55.865Z,22.27
2022-09-11T19:41:24.040Z,22.16
2022-09-11T19:43:51.310Z,22.04
2022-09-11T19:46:19.790Z,21.94
2022-09-11T19:48:48.785Z,21.88
2022-09-11T19:51:17.541Z,21.75
2022-09-11T19:53:45.128Z,21.66
2022-09-11T19:56:12.920Z,21.58
2022-09-11T19:58:40.512Z,21.47
2022-09-11T20:01:09.304Z,21.41
2022-09-11T20:03:37.156Z,21.41
2022-09-11T20:06:05.033Z,21.36
2022-09-11T20:08:33.048Z,21.22
2022-09-11T20:11:05.022Z,21.02
2022-09-11T20:13:32.270Z,21.08
2022-09-11T20:16:06.591Z,21.22
2022-09-11T20:18:33.898Z,21.25
2022-09-11T20:21:02.224Z,21.21
2022-09-11T20:23:29.687Z,21.15
2022-09-11T20:26:12.517Z,21.12
2022-09-11T20:28:42.290Z,21.12
2022-09-11T20:31:13.730Z,21.10
2022-09-11T20:33:41.555Z,21.08
2022-09-11T20:36:09.105Z,21.04
2022-09-11T20:38:36.401Z,21.02
2022-09-11T20:41:07.106Z,21.05
2022-09-11T20:43:34.387Z,21.01
2022-09-11T20:46:01.769Z,20.97
2022-09-11T20:48:29.121Z,20.92
2022-09-11T20:51:01.400Z,20.86
2022-09-11T20:53:28.805Z,20.81
2022-09-11T20:56:00.535Z,20.88
2022-09-11T20:58:28.272Z,20.93
2022-09-11T21:00:57.395Z,20.84
2022-09-11T21:03:25.399Z,20.90
2022-09-11T21:05:52.652Z,20.89
2022-09-11T21:08:19.932Z,20.86
2022-09-11T21:10:47.257Z,20.86
2022-09-11T21:13:14.709Z,20.82
2022-09-11T21:15:45.878Z,20.73
2022-09-11T21:18:13.834Z,20.69
2022-09-11T21:20:41.212Z,20.64
2022-09-11T21:23:08.907Z,20.56
2022-09-11T21:25:40.379Z,20.55
2022-09-11T21:28:07.592Z,20.56
2022-09-11T21:30:37.635Z,20.61
2022-09-11T21:33:04.917Z,20.55
2022-09-11T21:35:32.078Z,20.49
2022-09-11T21:37:59.520Z,20.40
2022-09-11T21:40:26.796Z,20.27
2022-09-11T21:42:54.032Z,20.23
2022-09-11T21:45:21.216Z,20.37
2022-09-11T21:47:48.597Z,20.38
2022-09-11T21:50:16.117Z,20.37
2022-09-11T21:52:43.313Z,20.31
2022-09-11T21:55:11.426Z,20.42
2022-09-11T21:57:38.604Z,20.42
2022-09-11T22:00:09.163Z,20.34
2022-09-11T22:02:36.349Z,20.23
2022-09-11T22:05:04.130Z,20.24
2022-09-11T22:07:32.128Z,20.32
2022-09-11T22:09:59.704Z,20.28
2022-09-11T22:12:26.976Z,20.35
2022-09-11T22:14:54.959Z,20.35
2022-09-11T22:17:22.684Z,20.31
2022-09-11T22:19:50.214Z,20.24
2022-09-11T22:22:17.499Z,20.23
2022-09-11T22:24:44.707Z,20.22
2022-09-11T22:27:12.171Z,20.20
2022-09-11T22:29:41.166Z,20.27
2022-09-11T22:32:11.195Z,20.23
2022-09-11T22:34:38.451Z,20.15
2022-09-11T22:37:06.229Z,20.14
2022-09-11T22:39:33.474Z,20.09
2022-09-11T22:42:00.742Z,20.07
2022-09-11T22:44:28.054Z,20.07
2022-09-11T22:46:55.256Z,20.03
2022-09-11T22:49:22.490Z,19.98
2022-09-11T22:51:49.770Z,19.96
2022-09-11T22:54:17.047Z,19.87
2022-09-11T22:56:44.327Z,19.86
2022-09-11T22:59:11.550Z,19.90
2022-09-11T23:01:38.777Z,19.86
2022-09-11T23:04:06.033Z,19.94
2022-09-11T23:06:51.569Z,19.93
2022-09-11T23:09:18.836Z,19.90
2022-09-11T23:11:46.338Z,19.87
2022-09-11T23:14:14.691Z,19.75
2022-09-11T23:16:42.284Z,19.73
2022-09-11T23:19:11.845Z,19.83
2022-09-11T23:21:39.055Z,19.78
2022-09-11T23:24:06.332Z,19.62
2022-09-11T23:26:34.181Z,19.60
2022-09-11T23:29:02.276Z,19.85
2022-09-11T23:31:31.121Z,19.82
2022-09-11T23:33:59.525Z,19.83
2022-09-11T23:36:27.490Z,19.83
2022-09-11T23:38:54.964Z,19.80
2022-09-11T23:41:22.420Z,19.68
2022-09-11T23:43:49.739Z,19.68
2022-09-11T23:46:17.345Z,19.67
2022-09-11T23:48:44.681Z,19.60
2022-09-11T23:51:12.154Z,19.59
2022-09-11T23:53:40.290Z,19.60
2022-09-11T23:56:07.691Z,19.62
2022-09-11T23:58:39.288Z,19.64
